sensor_id;sensor_type;location;lat;lon;timestamp;temperature;humidity
66094;DHT22;52876;49.394;10.892;2022-10-22T00:01:24;17.00;99.90
66094;DHT22;52876;49.394;10.892;2022-10-22T00:11:13;13.80;99.90
66094;DHT22;52876;49.394;10.892;2022-10-22T00:13:40;15.60;99.90
66094;DHT22;52876;49.394;10.892;2022-10-22T00:18:33;13.80;99.90
66094;DHT22;52876;49.394;10.892;2022-10-22T00:35:40;13.60;99.90
66094;DHT22;52876;49.394;10.892;2022-10-22T00:47:54;13.60;99.90
66094;DHT22;52876;49.394;10.892;2022-10-22T00:50:26;13.60;99.90
66094;DHT22;52876;49.394;10.892;2022-10-22T01:07:40;13.50;99.90
66094;DHT22;52876;49.394;10.892;2022-10-22T01:10:12;13.80;99.90
66094;DHT22;52876;49.394;10.892;2022-10-22T01:15:22;13.40;99.90
66094;DHT22;52876;49.394;10.892;2022-10-22T01:17:56;13.40;99.90
66094;DHT22;52876;49.394;10.892;2022-10-22T01:20:40;13.40;99.90
66094;DHT22;52876;49.394;10.892;2022-10-22T01:23:22;13.30;99.90
66094;DHT22;52876;49.394;10.892;2022-10-22T01:25:56;13.30;99.90
66094;DHT22;52876;49.394;10.892;2022-10-22T01:28:36;13.10;99.90
66094;DHT22;52876;49.394;10.892;2022-10-22T01:31:05;13.00;99.90
66094;DHT22;52876;49.394;10.892;2022-10-22T01:33:32;13.10;99.90
66094;DHT22;52876;49.394;10.892;2022-10-22T01:38:25;13.00;99.90
66094;DHT22;52876;49.394;10.892;2022-10-22T01:40:53;13.60;99.90
66094;DHT22;52876;49.394;10.892;2022-10-22T01:45:51;12.90;99.90
66094;DHT22;52876;49.394;10.892;2022-10-22T01:48:30;12.80;99.90
66094;DHT22;52876;49.394;10.892;2022-10-22T01:53:54;12.80;99.90
66094;DHT22;52876;49.394;10.892;2022-10-22T01:56:33;12.80;99.90
66094;DHT22;52876;49.394;10.892;2022-10-22T01:59:05;12.80;99.90
66094;DHT22;52876;49.394;10.892;2022-10-22T02:01:37;12.80;99.90
66094;DHT22;52876;49.394;10.892;2022-10-22T02:04:10;12.80;99.90
66094;DHT22;52876;49.394;10.892;2022-10-22T02:06:40;12.80;99.90
66094;DHT22;52876;49.394;10.892;2022-10-22T02:09:08;12.80;99.90
66094;DHT22;52876;49.394;10.892;2022-10-22T02:14:03;12.80;99.90
66094;DHT22;52876;49.394;10.892;2022-10-22T02:16:35;12.80;99.90
66094;DHT22;52876;49.394;10.892;2022-10-22T02:19:06;12.70;99.90
66094;DHT22;52876;49.394;10.892;2022-10-22T02:26:31;12.60;99.90
66094;DHT22;52876;49.394;10.892;2022-10-22T02:29:04;12.60;99.90
66094;DHT22;52876;49.394;10.892;2022-10-22T02:31:35;12.60;99.90
66094;DHT22;52876;49.394;10.892;2022-10-22T02:34:05;12.50;99.90
66094;DHT22;52876;49.394;10.892;2022-10-22T02:39:00;12.50;99.90
66094;DHT22;52876;49.394;10.892;2022-10-22T02:48:49;12.50;99.90
66094;DHT22;52876;49.394;10.892;2022-10-22T02:56:08;12.50;99.90
66094;DHT22;52876;49.394;10.892;2022-10-22T03:05:53;12.50;99.90
66094;DHT22;52876;49.394;10.892;2022-10-22T03:22:59;12.40;99.90
66094;DHT22;52876;49.394;10.892;2022-10-22T03:25:26;12.50;99.90
66094;DHT22;52876;49.394;10.892;2022-10-22T03:27:53;15.00;99.90
66094;DHT22;52876;49.394;10.892;2022-10-22T03:40:11;12.30;99.90
66094;DHT22;52876;49.394;10.892;2022-10-22T03:45:06;12.40;99.90
66094;DHT22;52876;49.394;10.892;2022-10-22T03:57:20;10.60;99.90
66094;DHT22;52876;49.394;10.892;2022-10-22T04:07:05;12.30;99.90
66094;DHT22;52876;49.394;10.892;2022-10-22T04:14:25;12.40;99.90
66094;DHT22;52876;49.394;10.892;2022-10-22T04:16:52;14.10;99.90
66094;DHT22;52876;49.394;10.892;2022-10-22T04:31:30;11.70;99.90
66094;DHT22;52876;49.394;10.892;2022-10-22T04:33:57;12.30;99.90
66094;DHT22;52876;49.394;10.892;2022-10-22T04:38:53;12.20;99.90
66094;DHT22;52876;49.394;10.892;2022-10-22T04:41:21;12.30;99.90
66094;DHT22;52876;49.394;10.892;2022-10-22T04:46:14;12.20;99.90
66094;DHT22;52876;49.394;10.892;2022-10-22T04:48:43;12.30;99.90
66094;DHT22;52876;49.394;10.892;2022-10-22T04:51:12;11.90;99.90
66094;DHT22;52876;49.394;10.892;2022-10-22T04:56:09;12.20;99.90
66094;DHT22;52876;49.394;10.892;2022-10-22T05:01:09;15.20;99.90
66094;DHT22;52876;49.394;10.892;2022-10-22T05:06:04;12.20;99.90
66094;DHT22;52876;49.394;10.892;2022-10-22T05:23:10;12.10;99.90
66094;DHT22;52876;49.394;10.892;2022-10-22T05:25:38;12.10;99.90
66094;DHT22;52876;49.394;10.892;2022-10-22T05:28:04;11.80;99.90
66094;DHT22;52876;49.394;10.892;2022-10-22T05:40:17;11.90;99.90
66094;DHT22;52876;49.394;10.892;2022-10-22T05:57:25;12.00;99.90
66094;DHT22;52876;49.394;10.892;2022-10-22T06:07:12;12.00;99.90
66094;DHT22;52876;49.394;10.892;2022-10-22T06:14:32;12.00;99.90
66094;DHT22;52876;49.394;10.892;2022-10-22T06:26:48;12.00;99.90
66094;DHT22;52876;49.394;10.892;2022-10-22T06:31:44;12.00;99.90
66094;DHT22;52876;49.394;10.892;2022-10-22T06:34:11;10.70;99.90
66094;DHT22;52876;49.394;10.892;2022-10-22T06:46:25;12.30;99.90
66094;DHT22;52876;49.394;10.892;2022-10-22T06:48:53;12.30;99.90
66094;DHT22;52876;49.394;10.892;2022-10-22T06:53:47;12.30;99.90
66094;DHT22;52876;49.394;10.892;2022-10-22T06:56:14;12.40;99.90
66094;DHT22;52876;49.394;10.892;2022-10-22T07:01:09;12.20;99.90
66094;DHT22;52876;49.394;10.892;2022-10-22T07:06:07;12.10;99.90
66094;DHT22;52876;49.394;10.892;2022-10-22T07:08:33;12.30;99.90
66094;DHT22;52876;49.394;10.892;2022-10-22T07:11:04;12.30;99.90
66094;DHT22;52876;49.394;10.892;2022-10-22T07:23:19;12.30;99.90
66094;DHT22;52876;49.394;10.892;2022-10-22T07:40:27;12.90;99.90
66094;DHT22;52876;49.394;10.892;2022-10-22T07:57:36;14.00;99.90
66094;DHT22;52876;49.394;10.892;2022-10-22T08:00:03;13.10;99.90
66094;DHT22;52876;49.394;10.892;2022-10-22T08:14:43;14.00;99.90
66094;DHT22;52876;49.394;10.892;2022-10-22T08:24:30;14.10;99.90
66094;DHT22;52876;49.394;10.892;2022-10-22T08:29:25;14.30;99.90
66094;DHT22;52876;49.394;10.892;2022-10-22T08:31:54;14.40;99.90
66094;DHT22;52876;49.394;10.892;2022-10-22T08:39:12;14.50;99.90
66094;DHT22;52876;49.394;10.892;2022-10-22T08:41:47;14.60;99.90
66094;DHT22;52876;49.394;10.892;2022-10-22T08:47:23;14.40;99.90
66094;DHT22;52876;49.394;10.892;2022-10-22T08:49:52;14.50;99.90
66094;DHT22;52876;49.394;10.892;2022-10-22T08:54:50;14.40;99.90
66094;DHT22;52876;49.394;10.892;2022-10-22T08:57:45;14.50;99.90
66094;DHT22;52876;49.394;10.892;2022-10-22T09:00:14;14.20;99.90
66094;DHT22;52876;49.394;10.892;2022-10-22T09:05:26;14.60;99.90
66094;DHT22;52876;49.394;10.892;2022-10-22T09:07:54;14.60;99.90
66094;DHT22;52876;49.394;10.892;2022-10-22T09:10:24;15.50;99.90
66094;DHT22;52876;49.394;10.892;2022-10-22T09:15:18;16.00;99.90
66094;DHT22;52876;49.394;10.892;2022-10-22T09:17:59;14.90;99.90
66094;DHT22;52876;49.394;10.892;2022-10-22T09:20:31;14.90;99.90
66094;DHT22;52876;49.394;10.892;2022-10-22T09:23:11;15.10;99.90
66094;DHT22;52876;49.394;10.892;2022-10-22T09:25:42;15.20;99.90
66094;DHT22;52876;49.394;10.892;2022-10-22T09:30:38;15.20;99.90
66094;DHT22;52876;49.394;10.892;2022-10-22T09:33:12;15.40;99.90
66094;DHT22;52876;49.394;10.892;2022-10-22T09:35:45;15.30;99.90
66094;DHT22;52876;49.394;10.892;2022-10-22T09:38:13;15.10;99.90
66094;DHT22;52876;49.394;10.892;2022-10-22T09:40:45;14.70;99.90
66094;DHT22;52876;49.394;10.892;2022-10-22T09:43:13;14.90;99.90
66094;DHT22;52876;49.394;10.892;2022-10-22T09:45:41;12.00;99.90
66094;DHT22;52876;49.394;10.892;2022-10-22T09:48:18;14.90;99.90
66094;DHT22;52876;49.394;10.892;2022-10-22T09:50:49;14.70;99.90
66094;DHT22;52876;49.394;10.892;2022-10-22T09:53:21;14.90;99.90
66094;DHT22;52876;49.394;10.892;2022-10-22T09:55:52;15.10;99.90
66094;DHT22;52876;49.394;10.892;2022-10-22T09:58:18;15.20;99.90
66094;DHT22;52876;49.394;10.892;2022-10-22T10:00:52;15.40;99.90
66094;DHT22;52876;49.394;10.892;2022-10-22T10:03:22;15.50;99.90
66094;DHT22;52876;49.394;10.892;2022-10-22T10:05:50;15.70;99.90
66094;DHT22;52876;49.394;10.892;2022-10-22T10:10:46;15.90;99.90
66094;DHT22;52876;49.394;10.892;2022-10-22T10:13:34;16.10;99.90
66094;DHT22;52876;49.394;10.892;2022-10-22T10:16:11;16.20;99.90
66094;DHT22;52876;49.394;10.892;2022-10-22T10:18:52;16.30;99.90
66094;DHT22;52876;49.394;10.892;2022-10-22T10:21:29;16.40;99.90
66094;DHT22;52876;49.394;10.892;2022-10-22T10:24:03;16.40;99.90
66094;DHT22;52876;49.394;10.892;2022-10-22T10:26:37;16.30;99.90
66094;DHT22;52876;49.394;10.892;2022-10-22T10:29:16;16.50;99.90
66094;DHT22;52876;49.394;10.892;2022-10-22T10:31:58;16.90;99.90
66094;DHT22;52876;49.394;10.892;2022-10-22T10:34:38;17.00;99.90
66094;DHT22;52876;49.394;10.892;2022-10-22T10:37:16;17.30;99.90
66094;DHT22;52876;49.394;10.892;2022-10-22T10:39:55;17.20;99.90
66094;DHT22;52876;49.394;10.892;2022-10-22T10:42:34;17.80;99.90
66094;DHT22;52876;49.394;10.892;2022-10-22T10:45:16;18.00;99.90
66094;DHT22;52876;49.394;10.892;2022-10-22T10:48:02;18.00;99.90
66094;DHT22;52876;49.394;10.892;2022-10-22T10:50:38;18.00;99.90
66094;DHT22;52876;49.394;10.892;2022-10-22T10:53:15;18.30;99.90
66094;DHT22;52876;49.394;10.892;2022-10-22T10:55:52;18.50;99.90
66094;DHT22;52876;49.394;10.892;2022-10-22T10:58:28;18.60;99.90
66094;DHT22;52876;49.394;10.892;2022-10-22T11:00:57;19.40;99.90
66094;DHT22;52876;49.394;10.892;2022-10-22T11:03:38;19.40;99.90
66094;DHT22;52876;49.394;10.892;2022-10-22T11:06:09;19.00;99.90
66094;DHT22;52876;49.394;10.892;2022-10-22T11:08:38;19.30;99.90
66094;DHT22;52876;49.394;10.892;2022-10-22T11:11:07;19.30;99.90
66094;DHT22;52876;49.394;10.892;2022-10-22T11:13:38;19.30;99.90
66094;DHT22;52876;49.394;10.892;2022-10-22T11:16:09;19.30;99.90
66094;DHT22;52876;49.394;10.892;2022-10-22T11:18:39;19.70;99.90
66094;DHT22;52876;49.394;10.892;2022-10-22T11:21:17;19.60;99.90
66094;DHT22;52876;49.394;10.892;2022-10-22T11:23:47;20.90;99.90
66094;DHT22;52876;49.394;10.892;2022-10-22T11:26:25;20.40;99.90
66094;DHT22;52876;49.394;10.892;2022-10-22T11:28:52;20.20;99.90
66094;DHT22;52876;49.394;10.892;2022-10-22T11:31:22;20.00;99.90
66094;DHT22;52876;49.394;10.892;2022-10-22T11:33:52;19.90;99.90
66094;DHT22;52876;49.394;10.892;2022-10-22T11:36:21;20.10;99.90
66094;DHT22;52876;49.394;10.892;2022-10-22T11:41:17;21.00;99.90
66094;DHT22;52876;49.394;10.892;2022-10-22T11:44:08;21.00;99.90
66094;DHT22;52876;49.394;10.892;2022-10-22T11:56:58;19.20;99.90
66094;DHT22;52876;49.394;10.892;2022-10-22T12:14:52;19.80;99.90
66094;DHT22;52876;49.394;10.892;2022-10-22T12:17:21;20.20;99.90
66094;DHT22;52876;49.394;10.892;2022-10-22T12:19:49;20.40;99.90
66094;DHT22;52876;49.394;10.892;2022-10-22T12:22:20;20.40;99.90
66094;DHT22;52876;49.394;10.892;2022-10-22T12:24:51;20.20;99.90
66094;DHT22;52876;49.394;10.892;2022-10-22T12:27:19;20.10;99.90
66094;DHT22;52876;49.394;10.892;2022-10-22T12:29:45;20.20;99.90
66094;DHT22;52876;49.394;10.892;2022-10-22T12:32:14;20.40;99.90
66094;DHT22;52876;49.394;10.892;2022-10-22T12:34:44;19.60;99.90
66094;DHT22;52876;49.394;10.892;2022-10-22T12:37:13;19.40;99.90
66094;DHT22;52876;49.394;10.892;2022-10-22T12:39:38;19.60;99.90
66094;DHT22;52876;49.394;10.892;2022-10-22T12:42:12;19.70;99.90
66094;DHT22;52876;49.394;10.892;2022-10-22T12:44:38;19.20;99.90
66094;DHT22;52876;49.394;10.892;2022-10-22T12:47:05;19.10;99.90
66094;DHT22;52876;49.394;10.892;2022-10-22T12:49:34;18.90;99.90
66094;DHT22;52876;49.394;10.892;2022-10-22T12:52:02;19.60;99.90
66094;DHT22;52876;49.394;10.892;2022-10-22T12:54:31;20.10;99.90
66094;DHT22;52876;49.394;10.892;2022-10-22T12:56:57;20.20;99.90
66094;DHT22;52876;49.394;10.892;2022-10-22T12:59:26;20.70;99.90
66094;DHT22;52876;49.394;10.892;2022-10-22T13:01:54;20.30;99.90
66094;DHT22;52876;49.394;10.892;2022-10-22T13:04:31;20.60;99.90
66094;DHT22;52876;49.394;10.892;2022-10-22T13:07:16;20.00;99.90
66094;DHT22;52876;49.394;10.892;2022-10-22T13:09:46;19.50;99.90
66094;DHT22;52876;49.394;10.892;2022-10-22T13:12:14;19.80;99.90
66094;DHT22;52876;49.394;10.892;2022-10-22T13:14:42;21.10;99.90
66094;DHT22;52876;49.394;10.892;2022-10-22T13:17:11;21.30;99.90
66094;DHT22;52876;49.394;10.892;2022-10-22T13:19:44;22.40;99.90
66094;DHT22;52876;49.394;10.892;2022-10-22T13:22:24;22.10;99.90
66094;DHT22;52876;49.394;10.892;2022-10-22T13:24:50;21.10;99.90
66094;DHT22;52876;49.394;10.892;2022-10-22T13:27:16;20.90;99.90
66094;DHT22;52876;49.394;10.892;2022-10-22T13:29:43;20.10;99.90
66094;DHT22;52876;49.394;10.892;2022-10-22T13:32:24;19.30;99.90
66094;DHT22;52876;49.394;10.892;2022-10-22T13:34:52;18.90;99.90
66094;DHT22;52876;49.394;10.892;2022-10-22T13:37:19;19.10;99.90
66094;DHT22;52876;49.394;10.892;2022-10-22T13:39:45;19.10;99.90
66094;DHT22;52876;49.394;10.892;2022-10-22T13:42:11;18.90;99.90
66094;DHT22;52876;49.394;10.892;2022-10-22T13:44:37;19.10;99.90
66094;DHT22;52876;49.394;10.892;2022-10-22T13:47:04;19.00;99.90
66094;DHT22;52876;49.394;10.892;2022-10-22T13:49:35;18.50;99.90
66094;DHT22;52876;49.394;10.892;2022-10-22T13:52:02;18.60;99.90
66094;DHT22;52876;49.394;10.892;2022-10-22T13:54:28;18.40;99.90
66094;DHT22;52876;49.394;10.892;2022-10-22T13:56:54;18.60;99.90
66094;DHT22;52876;49.394;10.892;2022-10-22T13:59:19;18.50;99.90
66094;DHT22;52876;49.394;10.892;2022-10-22T14:01:47;18.40;99.90
66094;DHT22;52876;49.394;10.892;2022-10-22T14:04:14;19.60;99.90
66094;DHT22;52876;49.394;10.892;2022-10-22T14:06:39;20.20;99.90
66094;DHT22;52876;49.394;10.892;2022-10-22T14:09:06;20.80;99.90
66094;DHT22;52876;49.394;10.892;2022-10-22T14:11:36;21.40;99.90
66094;DHT22;52876;49.394;10.892;2022-10-22T14:14:02;21.80;99.90
66094;DHT22;52876;49.394;10.892;2022-10-22T14:16:28;22.00;99.90
66094;DHT22;52876;49.394;10.892;2022-10-22T14:18:54;21.80;99.90
66094;DHT22;52876;49.394;10.892;2022-10-22T14:21:23;21.80;99.90
66094;DHT22;52876;49.394;10.892;2022-10-22T14:23:49;21.70;99.90
66094;DHT22;52876;49.394;10.892;2022-10-22T14:26:20;21.70;99.90
66094;DHT22;52876;49.394;10.892;2022-10-22T14:28:46;21.80;99.90
66094;DHT22;52876;49.394;10.892;2022-10-22T14:31:14;22.20;99.90
66094;DHT22;52876;49.394;10.892;2022-10-22T14:33:40;22.80;99.90
66094;DHT22;52876;49.394;10.892;2022-10-22T14:36:08;22.70;99.90
66094;DHT22;52876;49.394;10.892;2022-10-22T14:38:37;22.30;99.90
66094;DHT22;52876;49.394;10.892;2022-10-22T14:41:13;22.00;99.90
66094;DHT22;52876;49.394;10.892;2022-10-22T14:43:41;22.30;99.90
66094;DHT22;52876;49.394;10.892;2022-10-22T14:46:10;22.20;99.90
66094;DHT22;52876;49.394;10.892;2022-10-22T14:48:36;22.20;99.90
66094;DHT22;52876;49.394;10.892;2022-10-22T14:51:02;22.20;99.90
66094;DHT22;52876;49.394;10.892;2022-10-22T14:53:28;21.70;99.90
66094;DHT22;52876;49.394;10.892;2022-10-22T14:55:56;21.60;99.90
66094;DHT22;52876;49.394;10.892;2022-10-22T14:58:22;21.60;99.90
66094;DHT22;52876;49.394;10.892;2022-10-22T15:00:47;21.60;99.90
66094;DHT22;52876;49.394;10.892;2022-10-22T15:03:13;21.80;99.90
66094;DHT22;52876;49.394;10.892;2022-10-22T15:05:40;21.70;99.90
66094;DHT22;52876;49.394;10.892;2022-10-22T15:08:06;21.40;99.90
66094;DHT22;52876;49.394;10.892;2022-10-22T15:10:33;21.50;99.90
66094;DHT22;52876;49.394;10.892;2022-10-22T15:13:00;21.30;99.90
66094;DHT22;52876;49.394;10.892;2022-10-22T15:15:26;21.20;99.90
66094;DHT22;52876;49.394;10.892;2022-10-22T15:17:52;21.30;99.90
66094;DHT22;52876;49.394;10.892;2022-10-22T15:20:17;21.10;99.90
66094;DHT22;52876;49.394;10.892;2022-10-22T15:22:45;21.00;99.90
66094;DHT22;52876;49.394;10.892;2022-10-22T15:25:12;21.00;99.90
66094;DHT22;52876;49.394;10.892;2022-10-22T15:27:39;21.40;99.90
66094;DHT22;52876;49.394;10.892;2022-10-22T15:30:07;21.40;99.90
66094;DHT22;52876;49.394;10.892;2022-10-22T15:32:35;21.80;99.90
66094;DHT22;52876;49.394;10.892;2022-10-22T15:35:01;21.50;99.90
66094;DHT22;52876;49.394;10.892;2022-10-22T15:37:28;21.50;99.90
66094;DHT22;52876;49.394;10.892;2022-10-22T15:39:53;20.70;99.90
66094;DHT22;52876;49.394;10.892;2022-10-22T15:42:19;20.10;99.90
66094;DHT22;52876;49.394;10.892;2022-10-22T15:44:45;19.50;99.90
66094;DHT22;52876;49.394;10.892;2022-10-22T15:47:12;19.20;99.90
66094;DHT22;52876;49.394;10.892;2022-10-22T15:49:38;18.90;99.90
66094;DHT22;52876;49.394;10.892;2022-10-22T15:52:05;18.40;99.90
66094;DHT22;52876;49.394;10.892;2022-10-22T15:54:31;18.20;99.90
66094;DHT22;52876;49.394;10.892;2022-10-22T15:56:58;18.10;99.90
66094;DHT22;52876;49.394;10.892;2022-10-22T15:59:25;17.80;99.90
66094;DHT22;52876;49.394;10.892;2022-10-22T16:01:50;17.70;99.90
66094;DHT22;52876;49.394;10.892;2022-10-22T16:04:18;17.30;99.90
66094;DHT22;52876;49.394;10.892;2022-10-22T16:06:47;17.10;99.90
66094;DHT22;52876;49.394;10.892;2022-10-22T16:09:15;17.00;99.90
66094;DHT22;52876;49.394;10.892;2022-10-22T16:11:41;16.90;99.90
66094;DHT22;52876;49.394;10.892;2022-10-22T16:14:09;16.80;99.90
66094;DHT22;52876;49.394;10.892;2022-10-22T16:16:37;16.70;99.90
66094;DHT22;52876;49.394;10.892;2022-10-22T16:19:06;16.70;99.90
66094;DHT22;52876;49.394;10.892;2022-10-22T16:21:33;16.60;99.90
66094;DHT22;52876;49.394;10.892;2022-10-22T16:24:00;16.40;99.90
66094;DHT22;52876;49.394;10.892;2022-10-22T16:26:27;16.30;99.90
66094;DHT22;52876;49.394;10.892;2022-10-22T16:28:53;16.20;99.90
66094;DHT22;52876;49.394;10.892;2022-10-22T16:31:19;16.10;99.90
66094;DHT22;52876;49.394;10.892;2022-10-22T16:33:45;16.20;99.90
66094;DHT22;52876;49.394;10.892;2022-10-22T16:36:12;16.20;99.90
66094;DHT22;52876;49.394;10.892;2022-10-22T16:38:39;16.20;99.90
66094;DHT22;52876;49.394;10.892;2022-10-22T16:41:07;16.10;99.90
66094;DHT22;52876;49.394;10.892;2022-10-22T16:43:33;16.00;99.90
66094;DHT22;52876;49.394;10.892;2022-10-22T16:45:58;16.10;99.90
66094;DHT22;52876;49.394;10.892;2022-10-22T16:48:24;15.90;99.90
66094;DHT22;52876;49.394;10.892;2022-10-22T16:50:50;15.70;99.90
66094;DHT22;52876;49.394;10.892;2022-10-22T16:53:17;15.50;99.90
66094;DHT22;52876;49.394;10.892;2022-10-22T16:55:45;15.30;99.90
66094;DHT22;52876;49.394;10.892;2022-10-22T16:58:11;15.40;99.90
66094;DHT22;52876;49.394;10.892;2022-10-22T17:00:36;16.10;99.90
66094;DHT22;52876;49.394;10.892;2022-10-22T17:03:02;15.20;99.90
66094;DHT22;52876;49.394;10.892;2022-10-22T17:05:28;15.20;99.90
66094;DHT22;52876;49.394;10.892;2022-10-22T17:07:54;15.00;99.90
66094;DHT22;52876;49.394;10.892;2022-10-22T17:10:21;14.80;99.90
66094;DHT22;52876;49.394;10.892;2022-10-22T17:12:49;14.80;99.90
66094;DHT22;52876;49.394;10.892;2022-10-22T17:15:15;14.60;99.90
66094;DHT22;52876;49.394;10.892;2022-10-22T17:17:42;14.50;99.90
66094;DHT22;52876;49.394;10.892;2022-10-22T17:20:10;14.40;99.90
66094;DHT22;52876;49.394;10.892;2022-10-22T17:22:37;14.30;99.90
66094;DHT22;52876;49.394;10.892;2022-10-22T17:27:36;14.00;99.90
66094;DHT22;52876;49.394;10.892;2022-10-22T17:30:04;14.30;99.90
66094;DHT22;52876;49.394;10.892;2022-10-22T17:32:35;14.30;99.90
66094;DHT22;52876;49.394;10.892;2022-10-22T17:35:00;14.40;99.90
66094;DHT22;52876;49.394;10.892;2022-10-22T17:37:28;14.40;99.90
66094;DHT22;52876;49.394;10.892;2022-10-22T17:39:54;14.40;99.90
66094;DHT22;52876;49.394;10.892;2022-10-22T17:42:20;14.30;99.90
66094;DHT22;52876;49.394;10.892;2022-10-22T17:47:14;14.10;99.90
66094;DHT22;52876;49.394;10.892;2022-10-22T17:49:58;14.00;99.90
66094;DHT22;52876;49.394;10.892;2022-10-22T17:52:43;14.00;99.90
66094;DHT22;52876;49.394;10.892;2022-10-22T17:55:27;13.90;99.90
66094;DHT22;52876;49.394;10.892;2022-10-22T17:58:11;13.90;99.90
66094;DHT22;52876;49.394;10.892;2022-10-22T18:00:56;14.20;99.90
66094;DHT22;52876;49.394;10.892;2022-10-22T18:03:42;13.80;99.90
66094;DHT22;52876;49.394;10.892;2022-10-22T18:06:09;13.50;99.90
66094;DHT22;52876;49.394;10.892;2022-10-22T18:08:35;13.50;99.90
66094;DHT22;52876;49.394;10.892;2022-10-22T18:11:05;13.50;99.90
66094;DHT22;52876;49.394;10.892;2022-10-22T18:13:31;13.00;99.90
66094;DHT22;52876;49.394;10.892;2022-10-22T18:15:57;13.10;99.90
66094;DHT22;52876;49.394;10.892;2022-10-22T18:18:23;13.50;99.90
66094;DHT22;52876;49.394;10.892;2022-10-22T18:20:52;13.00;99.90
66094;DHT22;52876;49.394;10.892;2022-10-22T18:23:18;13.30;99.90
66094;DHT22;52876;49.394;10.892;2022-10-22T18:25:46;13.40;99.90
66094;DHT22;52876;49.394;10.892;2022-10-22T18:28:12;10.00;99.90
66094;DHT22;52876;49.394;10.892;2022-10-22T18:30:38;13.10;99.90
66094;DHT22;52876;49.394;10.892;2022-10-22T18:33:04;13.00;99.90
66094;DHT22;52876;49.394;10.892;2022-10-22T18:35:49;13.30;99.90
66094;DHT22;52876;49.394;10.892;2022-10-22T18:38:16;13.20;99.90
66094;DHT22;52876;49.394;10.892;2022-10-22T18:40:44;13.50;99.90
66094;DHT22;52876;49.394;10.892;2022-10-22T18:43:10;13.30;99.90
66094;DHT22;52876;49.394;10.892;2022-10-22T18:45:40;13.20;99.90
66094;DHT22;52876;49.394;10.892;2022-10-22T18:48:06;13.20;99.90
66094;DHT22;52876;49.394;10.892;2022-10-22T18:50:32;13.20;99.90
66094;DHT22;52876;49.394;10.892;2022-10-22T18:52:58;13.20;99.90
66094;DHT22;52876;49.394;10.892;2022-10-22T18:55:26;13.20;99.90
66094;DHT22;52876;49.394;10.892;2022-10-22T18:57:52;13.30;99.90
66094;DHT22;52876;49.394;10.892;2022-10-22T19:00:19;13.40;99.90
66094;DHT22;52876;49.394;10.892;2022-10-22T19:02:47;13.30;99.90
66094;DHT22;52876;49.394;10.892;2022-10-22T19:05:13;13.30;99.90
66094;DHT22;52876;49.394;10.892;2022-10-22T19:07:40;13.30;99.90
66094;DHT22;52876;49.394;10.892;2022-10-22T19:10:07;13.70;99.90
66094;DHT22;52876;49.394;10.892;2022-10-22T19:12:36;13.40;99.90
66094;DHT22;52876;49.394;10.892;2022-10-22T19:15:02;13.20;99.90
66094;DHT22;52876;49.394;10.892;2022-10-22T19:17:30;13.20;99.90
66094;DHT22;52876;49.394;10.892;2022-10-22T19:19:55;13.20;99.90
66094;DHT22;52876;49.394;10.892;2022-10-22T19:22:21;13.10;99.90
66094;DHT22;52876;49.394;10.892;2022-10-22T19:24:47;13.10;99.90
66094;DHT22;52876;49.394;10.892;2022-10-22T19:27:14;13.00;99.90
66094;DHT22;52876;49.394;10.892;2022-10-22T19:29:42;13.00;99.90
66094;DHT22;52876;49.394;10.892;2022-10-22T19:32:10;12.90;99.90
66094;DHT22;52876;49.394;10.892;2022-10-22T19:34:36;12.90;99.90
66094;DHT22;52876;49.394;10.892;2022-10-22T19:37:01;12.80;99.90
66094;DHT22;52876;49.394;10.892;2022-10-22T19:39:27;12.80;99.90
66094;DHT22;52876;49.394;10.892;2022-10-22T19:41:54;12.80;99.90
66094;DHT22;52876;49.394;10.892;2022-10-22T19:44:20;12.80;99.90
66094;DHT22;52876;49.394;10.892;2022-10-22T19:46:49;12.80;99.90
66094;DHT22;52876;49.394;10.892;2022-10-22T19:49:16;12.80;99.90
66094;DHT22;52876;49.394;10.892;2022-10-22T19:51:42;12.70;99.90
66094;DHT22;52876;49.394;10.892;2022-10-22T19:54:11;12.70;99.90
66094;DHT22;52876;49.394;10.892;2022-10-22T19:56:39;12.20;99.90
66094;DHT22;52876;49.394;10.892;2022-10-22T19:59:05;12.70;99.90
66094;DHT22;52876;49.394;10.892;2022-10-22T20:01:31;12.70;99.90
66094;DHT22;52876;49.394;10.892;2022-10-22T20:03:58;12.70;99.90
66094;DHT22;52876;49.394;10.892;2022-10-22T20:06:26;12.70;99.90
66094;DHT22;52876;49.394;10.892;2022-10-22T20:08:52;12.80;99.90
66094;DHT22;52876;49.394;10.892;2022-10-22T20:11:21;12.70;99.90
66094;DHT22;52876;49.394;10.892;2022-10-22T20:13:47;12.70;99.90
66094;DHT22;52876;49.394;10.892;2022-10-22T20:16:16;12.70;99.90
66094;DHT22;52876;49.394;10.892;2022-10-22T20:18:42;12.70;99.90
66094;DHT22;52876;49.394;10.892;2022-10-22T20:21:13;12.70;99.90
66094;DHT22;52876;49.394;10.892;2022-10-22T20:23:39;12.60;99.90
66094;DHT22;52876;49.394;10.892;2022-10-22T20:26:05;12.60;99.90
66094;DHT22;52876;49.394;10.892;2022-10-22T20:28:31;12.60;99.90
66094;DHT22;52876;49.394;10.892;2022-10-22T20:30:58;12.70;99.90
66094;DHT22;52876;49.394;10.892;2022-10-22T20:33:24;12.70;99.90
66094;DHT22;52876;49.394;10.892;2022-10-22T20:36:02;12.70;99.90
66094;DHT22;52876;49.394;10.892;2022-10-22T20:38:30;12.70;99.90
66094;DHT22;52876;49.394;10.892;2022-10-22T20:40:59;12.70;99.90
66094;DHT22;52876;49.394;10.892;2022-10-22T20:43:25;12.70;99.90
66094;DHT22;52876;49.394;10.892;2022-10-22T20:45:50;12.70;99.90
66094;DHT22;52876;49.394;10.892;2022-10-22T20:48:16;12.70;99.90
66094;DHT22;52876;49.394;10.892;2022-10-22T20:50:42;13.80;99.90
66094;DHT22;52876;49.394;10.892;2022-10-22T20:53:08;12.80;99.90
66094;DHT22;52876;49.394;10.892;2022-10-22T20:55:35;12.60;99.90
66094;DHT22;52876;49.394;10.892;2022-10-22T20:58:00;12.70;99.90
66094;DHT22;52876;49.394;10.892;2022-10-22T21:00:28;12.60;99.90
66094;DHT22;52876;49.394;10.892;2022-10-22T21:02:53;12.90;99.90
66094;DHT22;52876;49.394;10.892;2022-10-22T21:05:21;12.60;99.90
66094;DHT22;52876;49.394;10.892;2022-10-22T21:07:48;12.70;99.90
66094;DHT22;52876;49.394;10.892;2022-10-22T21:10:14;12.50;99.90
66094;DHT22;52876;49.394;10.892;2022-10-22T21:12:42;12.70;99.90
66094;DHT22;52876;49.394;10.892;2022-10-22T21:15:09;12.70;99.90
66094;DHT22;52876;49.394;10.892;2022-10-22T21:17:36;12.70;99.90
66094;DHT22;52876;49.394;10.892;2022-10-22T21:20:02;12.70;99.90
66094;DHT22;52876;49.394;10.892;2022-10-22T21:22:30;12.70;99.90
66094;DHT22;52876;49.394;10.892;2022-10-22T21:24:55;12.70;99.90